sensor_id;sensor_type;location;lat;lon;timestamp;pressure;altitude;pressure_sealevel;temperature;humidity
76827;BME280;65788;52.284;20.890;2022-12-07T00:02:10;99664.84;;;18.95;36.02
76827;BME280;65788;52.284;20.890;2022-12-07T00:04:41;99663.98;;;18.92;36.09
76827;BME280;65788;52.284;20.890;2022-12-07T00:07:12;99659.41;;;18.89;36.14
76827;BME280;65788;52.284;20.890;2022-12-07T00:09:45;99657.51;;;18.90;36.09
76827;BME280;65788;52.284;20.890;2022-12-07T00:12:16;99652.80;;;18.90;36.00
76827;BME280;65788;52.284;20.890;2022-12-07T00:14:48;99646.52;;;18.89;35.99
76827;BME280;65788;52.284;20.890;2022-12-07T00:17:19;99645.80;;;18.86;35.97
76827;BME280;65788;52.284;20.890;2022-12-07T00:19:50;99644.77;;;18.83;35.97
76827;BME280;65788;52.284;20.890;2022-12-07T00:22:21;99645.02;;;18.84;35.98
76827;BME280;65788;52.284;20.890;2022-12-07T00:24:52;99645.05;;;18.81;36.03
76827;BME280;65788;52.284;20.890;2022-12-07T00:27:23;99644.67;;;18.82;35.98
76827;BME280;65788;52.284;20.890;2022-12-07T00:29:54;99647.20;;;18.81;35.98
76827;BME280;65788;52.284;20.890;2022-12-07T00:32:25;99645.61;;;18.79;36.02
76827;BME280;65788;52.284;20.890;2022-12-07T00:34:56;99643.42;;;18.78;36.01
76827;BME280;65788;52.284;20.890;2022-12-07T00:37:27;99640.77;;;18.77;36.01
76827;BME280;65788;52.284;20.890;2022-12-07T00:39:58;99638.95;;;18.74;36.02
76827;BME280;65788;52.284;20.890;2022-12-07T00:42:32;99640.09;;;18.73;36.06
76827;BME280;65788;52.284;20.890;2022-12-07T00:45:03;99637.01;;;18.72;35.97
76827;BME280;65788;52.284;20.890;2022-12-07T00:47:34;99637.19;;;18.72;35.93
76827;BME280;65788;52.284;20.890;2022-12-07T00:50:09;99638.42;;;18.71;35.96
76827;BME280;65788;52.284;20.890;2022-12-07T00:52:40;99637.41;;;18.69;35.93
76827;BME280;65788;52.284;20.890;2022-12-07T00:55:11;99634.83;;;18.67;35.95
76827;BME280;65788;52.284;20.890;2022-12-07T00:57:42;99637.11;;;18.68;35.93
76827;BME280;65788;52.284;20.890;2022-12-07T01:00:14;99635.45;;;18.68;35.89
76827;BME280;65788;52.284;20.890;2022-12-07T01:02:45;99632.06;;;18.64;35.95
76827;BME280;65788;52.284;20.890;2022-12-07T01:05:17;99631.22;;;18.63;35.93
76827;BME280;65788;52.284;20.890;2022-12-07T01:07:48;99626.54;;;18.62;35.91
76827;BME280;65788;52.284;20.890;2022-12-07T01:10:19;99627.02;;;18.59;35.93
76827;BME280;65788;52.284;20.890;2022-12-07T01:12:50;99627.84;;;18.61;35.89
76827;BME280;65788;52.284;20.890;2022-12-07T01:15:21;99629.77;;;18.58;35.94
76827;BME280;65788;52.284;20.890;2022-12-07T01:17:53;99629.45;;;18.55;35.98
76827;BME280;65788;52.284;20.890;2022-12-07T01:20:24;99624.95;;;18.54;35.96
76827;BME280;65788;52.284;20.890;2022-12-07T01:22:54;99627.88;;;18.52;35.98
76827;BME280;65788;52.284;20.890;2022-12-07T01:25:26;99621.16;;;18.52;35.96
76827;BME280;65788;52.284;20.890;2022-12-07T01:27:56;99620.93;;;18.49;36.02
76827;BME280;65788;52.284;20.890;2022-12-07T01:30:27;99617.65;;;18.49;35.99
76827;BME280;65788;52.284;20.890;2022-12-07T01:32:58;99612.93;;;18.47;35.99
76827;BME280;65788;52.284;20.890;2022-12-07T01:35:29;99615.77;;;18.49;35.93
76827;BME280;65788;52.284;20.890;2022-12-07T01:38:00;99611.98;;;18.47;35.95
76827;BME280;65788;52.284;20.890;2022-12-07T01:40:34;99609.98;;;18.46;35.92
76827;BME280;65788;52.284;20.890;2022-12-07T01:43:07;99615.10;;;18.45;35.91
76827;BME280;65788;52.284;20.890;2022-12-07T01:45:41;99612.31;;;18.46;35.89
76827;BME280;65788;52.284;20.890;2022-12-07T01:48:14;99612.53;;;18.44;35.90
76827;BME280;65788;52.284;20.890;2022-12-07T01:50:50;99614.89;;;18.41;35.90
76827;BME280;65788;52.284;20.890;2022-12-07T01:53:25;99612.23;;;18.41;35.88
76827;BME280;65788;52.284;20.890;2022-12-07T01:56:00;99610.80;;;18.39;35.89
76827;BME280;65788;52.284;20.890;2022-12-07T01:58:31;99611.23;;;18.37;35.90
76827;BME280;65788;52.284;20.890;2022-12-07T02:01:03;99607.31;;;18.33;35.91
76827;BME280;65788;52.284;20.890;2022-12-07T02:03:37;99608.79;;;18.32;35.90
76827;BME280;65788;52.284;20.890;2022-12-07T02:06:13;99605.17;;;18.32;35.89
76827;BME280;65788;52.284;20.890;2022-12-07T02:08:47;99603.26;;;18.31;35.88
76827;BME280;65788;52.284;20.890;2022-12-07T02:11:19;99598.04;;;18.32;35.79
76827;BME280;65788;52.284;20.890;2022-12-07T02:13:50;99596.13;;;18.31;35.79
76827;BME280;65788;52.284;20.890;2022-12-07T02:16:36;99595.18;;;18.29;35.83
76827;BME280;65788;52.284;20.890;2022-12-07T02:22:23;99594.48;;;18.26;35.86
76827;BME280;65788;52.284;20.890;2022-12-07T02:25:11;99594.30;;;18.25;35.86
76827;BME280;65788;52.284;20.890;2022-12-07T02:27:49;99594.23;;;18.23;35.84
76827;BME280;65788;52.284;20.890;2022-12-07T02:30:26;99591.52;;;18.21;35.90
76827;BME280;65788;52.284;20.890;2022-12-07T02:33:03;99593.14;;;18.23;35.86
76827;BME280;65788;52.284;20.890;2022-12-07T02:35:41;99592.04;;;18.22;35.87
76827;BME280;65788;52.284;20.890;2022-12-07T02:38:16;99593.21;;;18.20;35.91
76827;BME280;65788;52.284;20.890;2022-12-07T02:40:53;99589.91;;;18.19;35.92
76827;BME280;65788;52.284;20.890;2022-12-07T02:43:27;99591.64;;;18.17;35.95
76827;BME280;65788;52.284;20.890;2022-12-07T02:46:03;99591.59;;;18.15;36.00
76827;BME280;65788;52.284;20.890;2022-12-07T02:48:38;99593.65;;;18.14;36.01
76827;BME280;65788;52.284;20.890;2022-12-07T02:51:11;99588.23;;;18.14;35.99
76827;BME280;65788;52.284;20.890;2022-12-07T02:53:43;99589.13;;;18.15;35.99
76827;BME280;65788;52.284;20.890;2022-12-07T02:56:20;99590.02;;;18.11;36.02
76827;BME280;65788;52.284;20.890;2022-12-07T02:59:07;99589.75;;;18.09;36.04
76827;BME280;65788;52.284;20.890;2022-12-07T03:01:44;99587.77;;;18.07;36.05
76827;BME280;65788;52.284;20.890;2022-12-07T03:04:32;99587.63;;;18.08;36.04
76827;BME280;65788;52.284;20.890;2022-12-07T03:07:14;99588.72;;;18.10;36.01
76827;BME280;65788;52.284;20.890;2022-12-07T03:09:53;99589.98;;;18.07;36.05
76827;BME280;65788;52.284;20.890;2022-12-07T03:12:37;99587.00;;;18.05;36.08
76827;BME280;65788;52.284;20.890;2022-12-07T03:15:16;99584.35;;;18.06;36.04
76827;BME280;65788;52.284;20.890;2022-12-07T03:17:50;99584.05;;;18.05;36.03
76827;BME280;65788;52.284;20.890;2022-12-07T03:20:23;99579.95;;;18.03;36.04
76827;BME280;65788;52.284;20.890;2022-12-07T03:22:57;99579.55;;;18.01;36.04
76827;BME280;65788;52.284;20.890;2022-12-07T03:25:29;99581.86;;;18.00;36.06
76827;BME280;65788;52.284;20.890;2022-12-07T03:28:04;99581.42;;;18.01;36.03
76827;BME280;65788;52.284;20.890;2022-12-07T03:30:42;99576.86;;;17.98;36.05
76827;BME280;65788;52.284;20.890;2022-12-07T03:33:20;99575.55;;;17.98;36.03
76827;BME280;65788;52.284;20.890;2022-12-07T03:35:58;99570.38;;;17.97;36.03
76827;BME280;65788;52.284;20.890;2022-12-07T03:38:37;99568.96;;;17.96;36.02
76827;BME280;65788;52.284;20.890;2022-12-07T03:41:13;99573.53;;;17.95;36.02
76827;BME280;65788;52.284;20.890;2022-12-07T03:43:45;99566.39;;;17.95;36.05
76827;BME280;65788;52.284;20.890;2022-12-07T03:46:24;99559.31;;;17.94;36.05
76827;BME280;65788;52.284;20.890;2022-12-07T03:49:02;99556.73;;;17.93;36.07
76827;BME280;65788;52.284;20.890;2022-12-07T03:51:40;99555.69;;;17.91;36.09
76827;BME280;65788;52.284;20.890;2022-12-07T03:54:18;99556.83;;;17.92;36.06
76827;BME280;65788;52.284;20.890;2022-12-07T03:56:51;99553.64;;;17.91;36.06
76827;BME280;65788;52.284;20.890;2022-12-07T03:59:24;99552.55;;;17.91;36.07
76827;BME280;65788;52.284;20.890;2022-12-07T04:02:01;99553.11;;;17.87;36.13
76827;BME280;65788;52.284;20.890;2022-12-07T04:04:32;99549.48;;;17.88;36.10
76827;BME280;65788;52.284;20.890;2022-12-07T04:07:04;99551.27;;;17.86;36.12
76827;BME280;65788;52.284;20.890;2022-12-07T04:09:35;99550.00;;;17.89;36.05
76827;BME280;65788;52.284;20.890;2022-12-07T04:12:10;99546.36;;;17.84;36.13
76827;BME280;65788;52.284;20.890;2022-12-07T04:14:41;99547.09;;;17.86;36.08
76827;BME280;65788;52.284;20.890;2022-12-07T04:17:12;99543.81;;;17.83;36.09
76827;BME280;65788;52.284;20.890;2022-12-07T04:19:43;99546.94;;;17.84;36.05
76827;BME280;65788;52.284;20.890;2022-12-07T04:22:14;99543.84;;;17.81;36.12
76827;BME280;65788;52.284;20.890;2022-12-07T04:24:45;99545.41;;;17.81;36.09
76827;BME280;65788;52.284;20.890;2022-12-07T04:27:16;99543.83;;;17.82;36.07
76827;BME280;65788;52.284;20.890;2022-12-07T04:29:47;99550.65;;;17.78;36.13
76827;BME280;65788;52.284;20.890;2022-12-07T04:32:18;99545.71;;;17.77;36.13
76827;BME280;65788;52.284;20.890;2022-12-07T04:34:49;99546.58;;;17.76;36.15
76827;BME280;65788;52.284;20.890;2022-12-07T04:37:20;99540.79;;;17.76;36.12
76827;BME280;65788;52.284;20.890;2022-12-07T04:39:51;99540.09;;;17.79;36.09
76827;BME280;65788;52.284;20.890;2022-12-07T04:42:23;99536.65;;;17.77;36.08
76827;BME280;65788;52.284;20.890;2022-12-07T04:44:56;99539.39;;;17.76;36.13
76827;BME280;65788;52.284;20.890;2022-12-07T04:47:27;99535.23;;;17.74;36.17
76827;BME280;65788;52.284;20.890;2022-12-07T04:49:58;99538.05;;;17.73;36.15
76827;BME280;65788;52.284;20.890;2022-12-07T04:52:29;99541.48;;;17.76;36.11
76827;BME280;65788;52.284;20.890;2022-12-07T04:55:00;99541.35;;;17.86;35.90
76827;BME280;65788;52.284;20.890;2022-12-07T04:57:31;99536.23;;;17.89;35.85
76827;BME280;65788;52.284;20.890;2022-12-07T05:00:02;99533.91;;;17.96;35.77
76827;BME280;65788;52.284;20.890;2022-12-07T05:02:33;99531.63;;;18.06;35.61
76827;BME280;65788;52.284;20.890;2022-12-07T05:05:05;99526.91;;;18.14;35.47
76827;BME280;65788;52.284;20.890;2022-12-07T05:07:36;99529.84;;;18.22;35.44
76827;BME280;65788;52.284;20.890;2022-12-07T05:10:11;99530.11;;;18.32;35.48
76827;BME280;65788;52.284;20.890;2022-12-07T05:12:42;99526.96;;;18.38;35.50
76827;BME280;65788;52.284;20.890;2022-12-07T05:15:14;99519.54;;;18.43;35.47
76827;BME280;65788;52.284;20.890;2022-12-07T05:17:45;99518.27;;;18.49;35.42
76827;BME280;65788;52.284;20.890;2022-12-07T05:20:19;99514.00;;;18.57;35.33
76827;BME280;65788;52.284;20.890;2022-12-07T05:22:50;99512.66;;;18.65;35.18
76827;BME280;65788;52.284;20.890;2022-12-07T05:25:21;99518.48;;;18.71;35.13
76827;BME280;65788;52.284;20.890;2022-12-07T05:27:53;99514.16;;;18.78;35.05
76827;BME280;65788;52.284;20.890;2022-12-07T05:30:26;99512.41;;;18.85;34.97
76827;BME280;65788;52.284;20.890;2022-12-07T05:32:57;99510.45;;;18.92;34.85
76827;BME280;65788;52.284;20.890;2022-12-07T05:35:30;99513.35;;;18.92;34.79
76827;BME280;65788;52.284;20.890;2022-12-07T05:38:01;99513.20;;;18.91;34.76
76827;BME280;65788;52.284;20.890;2022-12-07T05:40:32;99508.86;;;18.92;34.78
76827;BME280;65788;52.284;20.890;2022-12-07T05:43:05;99510.55;;;18.91;34.83
76827;BME280;65788;52.284;20.890;2022-12-07T05:45:38;99520.69;;;18.93;34.92
76827;BME280;65788;52.284;20.890;2022-12-07T05:48:10;99515.71;;;18.96;34.98
76827;BME280;65788;52.284;20.890;2022-12-07T05:50:41;99515.19;;;19.02;34.99
76827;BME280;65788;52.284;20.890;2022-12-07T05:53:12;99515.61;;;19.08;34.91
76827;BME280;65788;52.284;20.890;2022-12-07T05:55:44;99517.34;;;19.14;34.90
76827;BME280;65788;52.284;20.890;2022-12-07T05:58:14;99520.91;;;19.17;35.18
76827;BME280;65788;52.284;20.890;2022-12-07T06:01:03;99518.27;;;19.21;35.33
76827;BME280;65788;52.284;20.890;2022-12-07T06:03:34;99517.31;;;19.22;35.29
76827;BME280;65788;52.284;20.890;2022-12-07T06:06:05;99516.70;;;19.20;35.28
76827;BME280;65788;52.284;20.890;2022-12-07T06:08:36;99516.73;;;19.24;35.14
76827;BME280;65788;52.284;20.890;2022-12-07T06:11:07;99513.73;;;19.31;34.97
76827;BME280;65788;52.284;20.890;2022-12-07T06:13:56;99518.04;;;19.37;34.82
76827;BME280;65788;52.284;20.890;2022-12-07T06:16:26;99514.67;;;19.41;34.77
76827;BME280;65788;52.284;20.890;2022-12-07T06:18:57;99511.30;;;19.44;34.69
76827;BME280;65788;52.284;20.890;2022-12-07T06:21:31;99507.67;;;19.48;34.58
76827;BME280;65788;52.284;20.890;2022-12-07T06:24:02;99508.59;;;19.53;34.48
76827;BME280;65788;52.284;20.890;2022-12-07T06:26:33;99506.91;;;19.54;34.43
76827;BME280;65788;52.284;20.890;2022-12-07T06:29:04;99507.69;;;19.57;34.36
76827;BME280;65788;52.284;20.890;2022-12-07T06:31:36;99503.96;;;19.57;34.33
76827;BME280;65788;52.284;20.890;2022-12-07T06:34:09;99499.85;;;19.59;34.28
76827;BME280;65788;52.284;20.890;2022-12-07T06:36:43;99501.56;;;19.62;34.20
76827;BME280;65788;52.284;20.890;2022-12-07T06:39:14;99501.14;;;19.63;34.15
76827;BME280;65788;52.284;20.890;2022-12-07T06:41:45;99502.86;;;19.66;34.08
76827;BME280;65788;52.284;20.890;2022-12-07T06:44:19;99501.64;;;19.65;34.08
76827;BME280;65788;52.284;20.890;2022-12-07T06:46:52;99501.64;;;19.68;34.00
76827;BME280;65788;52.284;20.890;2022-12-07T06:49:23;99503.98;;;19.71;33.91
76827;BME280;65788;52.284;20.890;2022-12-07T06:51:54;99506.48;;;19.72;33.88
76827;BME280;65788;52.284;20.890;2022-12-07T06:54:25;99506.16;;;19.72;33.87
76827;BME280;65788;52.284;20.890;2022-12-07T06:56:55;99504.23;;;19.72;33.85
76827;BME280;65788;52.284;20.890;2022-12-07T06:59:27;99504.49;;;19.75;33.78
76827;BME280;65788;52.284;20.890;2022-12-07T07:02:01;99504.08;;;19.76;33.76
76827;BME280;65788;52.284;20.890;2022-12-07T07:04:34;99505.77;;;19.78;33.68
76827;BME280;65788;52.284;20.890;2022-12-07T07:07:06;99501.84;;;19.78;33.64
76827;BME280;65788;52.284;20.890;2022-12-07T07:09:37;99506.85;;;19.79;33.62
76827;BME280;65788;52.284;20.890;2022-12-07T07:12:08;99506.80;;;19.81;33.56
76827;BME280;65788;52.284;20.890;2022-12-07T07:14:40;99508.32;;;19.82;33.53
76827;BME280;65788;52.284;20.890;2022-12-07T07:17:12;99509.43;;;19.82;33.51
76827;BME280;65788;52.284;20.890;2022-12-07T07:19:43;99502.34;;;19.80;33.53
76827;BME280;65788;52.284;20.890;2022-12-07T07:22:15;99501.15;;;19.81;33.47
76827;BME280;65788;52.284;20.890;2022-12-07T07:24:46;99499.77;;;19.82;33.46
76827;BME280;65788;52.284;20.890;2022-12-07T07:27:17;99501.05;;;19.82;33.43
76827;BME280;65788;52.284;20.890;2022-12-07T07:29:48;99501.04;;;19.82;33.40
76827;BME280;65788;52.284;20.890;2022-12-07T07:32:19;99503.87;;;19.84;33.35
76827;BME280;65788;52.284;20.890;2022-12-07T07:34:51;99507.35;;;19.83;33.33
76827;BME280;65788;52.284;20.890;2022-12-07T07:37:27;99508.45;;;19.83;33.31
76827;BME280;65788;52.284;20.890;2022-12-07T07:39:59;99510.51;;;19.85;33.27
76827;BME280;65788;52.284;20.890;2022-12-07T07:42:30;99508.77;;;19.85;33.27
76827;BME280;65788;52.284;20.890;2022-12-07T07:45:02;99509.25;;;19.86;33.20
76827;BME280;65788;52.284;20.890;2022-12-07T07:47:34;99508.27;;;19.84;33.21
76827;BME280;65788;52.284;20.890;2022-12-07T07:50:06;99505.35;;;19.86;33.15
76827;BME280;65788;52.284;20.890;2022-12-07T07:52:38;99503.78;;;19.88;33.11
76827;BME280;65788;52.284;20.890;2022-12-07T07:55:10;99505.50;;;19.87;33.08
76827;BME280;65788;52.284;20.890;2022-12-07T07:57:41;99505.92;;;19.86;33.05
76827;BME280;65788;52.284;20.890;2022-12-07T08:00:15;99508.64;;;19.89;33.01
76827;BME280;65788;52.284;20.890;2022-12-07T08:02:46;99508.13;;;19.86;33.02
76827;BME280;65788;52.284;20.890;2022-12-07T08:05:18;99509.58;;;19.89;32.99
76827;BME280;65788;52.284;20.890;2022-12-07T08:07:49;99511.15;;;19.89;33.02
76827;BME280;65788;52.284;20.890;2022-12-07T08:10:20;99511.45;;;19.91;33.14
76827;BME280;65788;52.284;20.890;2022-12-07T08:12:51;99509.84;;;19.91;33.23
76827;BME280;65788;52.284;20.890;2022-12-07T08:15:41;99514.50;;;19.93;33.30
76827;BME280;65788;52.284;20.890;2022-12-07T08:18:13;99514.35;;;19.91;33.35
76827;BME280;65788;52.284;20.890;2022-12-07T08:20:44;99513.09;;;19.96;33.27
76827;BME280;65788;52.284;20.890;2022-12-07T08:23:15;99518.03;;;19.98;33.15
76827;BME280;65788;52.284;20.890;2022-12-07T08:25:46;99523.61;;;20.02;33.10
76827;BME280;65788;52.284;20.890;2022-12-07T08:28:19;99522.38;;;20.01;33.07
76827;BME280;65788;52.284;20.890;2022-12-07T08:30:50;99525.30;;;20.00;33.18
76827;BME280;65788;52.284;20.890;2022-12-07T08:33:21;99527.23;;;20.05;33.36
76827;BME280;65788;52.284;20.890;2022-12-07T08:35:53;99528.90;;;20.05;33.37
76827;BME280;65788;52.284;20.890;2022-12-07T08:38:27;99532.77;;;20.07;33.31
76827;BME280;65788;52.284;20.890;2022-12-07T08:40:59;99537.66;;;20.08;33.30
76827;BME280;65788;52.284;20.890;2022-12-07T08:43:29;99532.02;;;20.06;33.31
76827;BME280;65788;52.284;20.890;2022-12-07T08:46:06;99534.04;;;20.10;33.25
76827;BME280;65788;52.284;20.890;2022-12-07T08:48:42;99536.61;;;20.11;33.20
76827;BME280;65788;52.284;20.890;2022-12-07T08:51:16;99532.83;;;20.10;33.21
76827;BME280;65788;52.284;20.890;2022-12-07T08:53:47;99532.36;;;20.10;33.21
76827;BME280;65788;52.284;20.890;2022-12-07T08:56:19;99530.64;;;20.10;33.21
76827;BME280;65788;52.284;20.890;2022-12-07T08:58:51;99528.70;;;20.13;33.18
76827;BME280;65788;52.284;20.890;2022-12-07T09:01:22;99526.20;;;20.16;33.12
76827;BME280;65788;52.284;20.890;2022-12-07T09:03:53;99526.67;;;20.17;33.08
76827;BME280;65788;52.284;20.890;2022-12-07T09:06:24;99522.05;;;20.19;32.99
76827;BME280;65788;52.284;20.890;2022-12-07T09:09:01;99519.46;;;20.18;32.99
76827;BME280;65788;52.284;20.890;2022-12-07T09:11:32;99515.98;;;20.18;33.01
76827;BME280;65788;52.284;20.890;2022-12-07T09:14:03;99515.45;;;20.20;32.99
76827;BME280;65788;52.284;20.890;2022-12-07T09:16:35;99505.57;;;20.21;32.95
76827;BME280;65788;52.284;20.890;2022-12-07T09:19:08;99504.79;;;20.21;32.94
76827;BME280;65788;52.284;20.890;2022-12-07T09:21:39;99505.25;;;20.21;32.93
76827;BME280;65788;52.284;20.890;2022-12-07T09:24:11;99501.90;;;20.24;32.88
76827;BME280;65788;52.284;20.890;2022-12-07T09:26:41;99501.48;;;20.25;32.84
76827;BME280;65788;52.284;20.890;2022-12-07T09:29:13;99496.91;;;20.27;32.83
76827;BME280;65788;52.284;20.890;2022-12-07T09:31:44;99498.59;;;20.28;32.89
76827;BME280;65788;52.284;20.890;2022-12-07T09:34:15;99497.72;;;20.29;32.95
76827;BME280;65788;52.284;20.890;2022-12-07T09:36:47;99499.92;;;20.40;35.18
76827;BME280;65788;52.284;20.890;2022-12-07T09:39:18;99499.75;;;20.44;36.13
76827;BME280;65788;52.284;20.890;2022-12-07T09:41:48;99499.63;;;20.53;36.83
76827;BME280;65788;52.284;20.890;2022-12-07T09:44:24;99500.48;;;20.57;35.74
76827;BME280;65788;52.284;20.890;2022-12-07T09:46:55;99495.60;;;20.67;35.85
76827;BME280;65788;52.284;20.890;2022-12-07T09:49:30;99494.30;;;20.72;35.02
76827;BME280;65788;52.284;20.890;2022-12-07T09:52:16;99494.31;;;20.75;34.83
76827;BME280;65788;52.284;20.890;2022-12-07T09:54:50;99489.23;;;20.74;34.82
76827;BME280;65788;52.284;20.890;2022-12-07T09:57:29;99487.27;;;20.78;34.69
76827;BME280;65788;52.284;20.890;2022-12-07T10:00:05;99483.35;;;20.79;33.86
76827;BME280;65788;52.284;20.890;2022-12-07T10:02:40;99485.03;;;20.77;33.42
76827;BME280;65788;52.284;20.890;2022-12-07T10:05:15;99483.61;;;20.78;33.30
76827;BME280;65788;52.284;20.890;2022-12-07T10:07:46;99481.84;;;20.86;33.14
76827;BME280;65788;52.284;20.890;2022-12-07T10:10:22;99478.62;;;20.83;33.18
76827;BME280;65788;52.284;20.890;2022-12-07T10:13:00;99480.96;;;20.90;33.06
76827;BME280;65788;52.284;20.890;2022-12-07T10:15:48;99479.59;;;21.03;32.56
76827;BME280;65788;52.284;20.890;2022-12-07T10:18:27;99481.98;;;21.03;33.32
76827;BME280;65788;52.284;20.890;2022-12-07T10:21:16;99479.67;;;20.98;33.16
76827;BME280;65788;52.284;20.890;2022-12-07T10:24:03;99479.11;;;20.89;33.14
76827;BME280;65788;52.284;20.890;2022-12-07T10:26:38;99478.22;;;20.85;32.77
76827;BME280;65788;52.284;20.890;2022-12-07T10:29:18;99479.27;;;20.85;32.72
76827;BME280;65788;52.284;20.890;2022-12-07T10:31:54;99476.09;;;20.88;32.46
76827;BME280;65788;52.284;20.890;2022-12-07T10:34:29;99470.66;;;20.89;32.36
76827;BME280;65788;52.284;20.890;2022-12-07T10:37:16;99468.99;;;20.93;32.28
76827;BME280;65788;52.284;20.890;2022-12-07T10:39:52;99468.11;;;20.90;32.26
76827;BME280;65788;52.284;20.890;2022-12-07T10:42:26;99467.87;;;20.93;32.23
76827;BME280;65788;52.284;20.890;2022-12-07T10:45:13;99468.23;;;20.94;32.15
76827;BME280;65788;52.284;20.890;2022-12-07T10:47:49;99470.34;;;20.94;32.14
76827;BME280;65788;52.284;20.890;2022-12-07T10:50:46;99467.80;;;21.00;32.46
76827;BME280;65788;52.284;20.890;2022-12-07T10:56:38;99471.52;;;21.03;32.23
76827;BME280;65788;52.284;20.890;2022-12-07T10:59:27;99470.38;;;20.96;32.00
76827;BME280;65788;52.284;20.890;2022-12-07T11:02:22;99467.48;;;20.93;32.07
76827;BME280;65788;52.284;20.890;2022-12-07T11:05:04;99466.27;;;20.93;32.11
76827;BME280;65788;52.284;20.890;2022-12-07T11:07:47;99464.27;;;20.90;32.14
76827;BME280;65788;52.284;20.890;2022-12-07T11:10:30;99463.76;;;20.89;31.88
76827;BME280;65788;52.284;20.890;2022-12-07T11:13:24;99467.37;;;20.89;31.84
76827;BME280;65788;52.284;20.890;2022-12-07T11:16:04;99465.86;;;20.80;32.08
76827;BME280;65788;52.284;20.890;2022-12-07T11:18:43;99467.14;;;20.81;32.06
76827;BME280;65788;52.284;20.890;2022-12-07T11:21:23;99468.66;;;20.79;32.14
76827;BME280;65788;52.284;20.890;2022-12-07T11:24:03;99466.77;;;20.78;31.99
76827;BME280;65788;52.284;20.890;2022-12-07T11:26:54;99465.95;;;20.80;31.75
76827;BME280;65788;52.284;20.890;2022-12-07T11:29:46;99466.82;;;20.78;31.75
76827;BME280;65788;52.284;20.890;2022-12-07T11:32:27;99463.98;;;20.78;31.67
76827;BME280;65788;52.284;20.890;2022-12-07T11:35:11;99458.52;;;20.76;31.72
76827;BME280;65788;52.284;20.890;2022-12-07T11:37:48;99457.63;;;20.81;32.11
76827;BME280;65788;52.284;20.890;2022-12-07T11:40:26;99453.25;;;20.82;32.10
76827;BME280;65788;52.284;20.890;2022-12-07T11:43:12;99454.59;;;20.85;32.04
76827;BME280;65788;52.284;20.890;2022-12-07T11:45:50;99450.11;;;20.87;31.98
76827;BME280;65788;52.284;20.890;2022-12-07T11:48:22;99447.41;;;20.90;31.93
76827;BME280;65788;52.284;20.890;2022-12-07T11:50:58;99447.96;;;20.89;31.99
76827;BME280;65788;52.284;20.890;2022-12-07T11:53:33;99450.60;;;20.94;31.92
76827;BME280;65788;52.284;20.890;2022-12-07T11:56:11;99446.80;;;20.98;31.97
76827;BME280;65788;52.284;20.890;2022-12-07T11:58:48;99445.63;;;20.96;31.79
76827;BME280;65788;52.284;20.890;2022-12-07T12:01:35;99442.83;;;20.99;31.84
76827;BME280;65788;52.284;20.890;2022-12-07T12:04:31;99439.81;;;21.06;31.72
76827;BME280;65788;52.284;20.890;2022-12-07T12:07:05;99441.69;;;21.05;31.71
76827;BME280;65788;52.284;20.890;2022-12-07T12:09:40;99442.40;;;21.05;31.66
76827;BME280;65788;52.284;20.890;2022-12-07T12:12:42;99439.77;;;21.02;31.70
76827;BME280;65788;52.284;20.890;2022-12-07T12:15:29;99437.74;;;21.02;31.80
76827;BME280;65788;52.284;20.890;2022-12-07T12:18:24;99438.77;;;20.99;31.71
76827;BME280;65788;52.284;20.890;2022-12-07T12:21:00;99436.02;;;20.98;31.72
76827;BME280;65788;52.284;20.890;2022-12-07T12:23:39;99432.92;;;20.99;31.86
76827;BME280;65788;52.284;20.890;2022-12-07T12:26:19;99430.48;;;21.03;31.66
76827;BME280;65788;52.284;20.890;2022-12-07T12:28:55;99424.38;;;21.04;31.67
76827;BME280;65788;52.284;20.890;2022-12-07T12:34:39;99420.60;;;20.97;31.67
76827;BME280;65788;52.284;20.890;2022-12-07T12:37:45;99420.88;;;21.01;31.57
76827;BME280;65788;52.284;20.890;2022-12-07T12:44:00;99423.52;;;20.99;32.00
76827;BME280;65788;52.284;20.890;2022-12-07T12:46:48;99419.89;;;20.90;31.89
76827;BME280;65788;52.284;20.890;2022-12-07T12:49:37;99418.84;;;20.91;31.62
76827;BME280;65788;52.284;20.890;2022-12-07T12:55:16;99411.52;;;20.84;31.79
76827;BME280;65788;52.284;20.890;2022-12-07T13:04:29;99406.36;;;20.78;31.68
76827;BME280;65788;52.284;20.890;2022-12-07T13:07:06;99405.98;;;20.78;31.73
76827;BME280;65788;52.284;20.890;2022-12-07T13:09:44;99403.31;;;20.78;31.64
76827;BME280;65788;52.284;20.890;2022-12-07T13:12:17;99409.14;;;20.81;31.51
76827;BME280;65788;52.284;20.890;2022-12-07T13:14:58;99406.27;;;20.79;31.55
76827;BME280;65788;52.284;20.890;2022-12-07T13:18:00;99403.98;;;20.75;31.62
76827;BME280;65788;52.284;20.890;2022-12-07T13:20:50;99406.23;;;20.65;32.17
76827;BME280;65788;52.284;20.890;2022-12-07T13:23:24;99407.77;;;20.65;32.03
76827;BME280;65788;52.284;20.890;2022-12-07T13:26:16;99406.75;;;20.70;31.60
76827;BME280;65788;52.284;20.890;2022-12-07T13:28:49;99408.58;;;20.72;31.48
76827;BME280;65788;52.284;20.890;2022-12-07T13:31:37;99404.30;;;20.72;31.54
76827;BME280;65788;52.284;20.890;2022-12-07T13:34:29;99398.77;;;20.71;31.52
76827;BME280;65788;52.284;20.890;2022-12-07T13:37:15;99401.45;;;20.75;31.44
76827;BME280;65788;52.284;20.890;2022-12-07T13:39:53;99402.40;;;20.76;31.43
76827;BME280;65788;52.284;20.890;2022-12-07T13:42:26;99404.00;;;20.76;31.42
76827;BME280;65788;52.284;20.890;2022-12-07T13:45:14;99403.49;;;20.75;31.41
76827;BME280;65788;52.284;20.890;2022-12-07T13:47:51;99406.38;;;20.78;31.37
76827;BME280;65788;52.284;20.890;2022-12-07T13:50:26;99404.95;;;20.76;31.43
76827;BME280;65788;52.284;20.890;2022-12-07T13:53:01;99405.92;;;20.74;31.47
76827;BME280;65788;52.284;20.890;2022-12-07T13:55:32;99410.04;;;20.82;31.39